sensor_id;sensor_type;location;lat;lon;timestamp;pressure;altitude;pressure_sealevel;temperature;humidity
28456;BME280;15682;56.742;38.866;2024-02-14T00:01:07;100760.0;;;-12.8;86.2
28456;BME280;15682;56.742;38.866;2024-02-14T00:03:07;100760.0;;;-12.8;86.6
28456;BME280;15682;56.742;38.866;2024-02-14T00:05:07;100760.0;;;-12.8;86.0
28456;BME280;15682;56.742;38.866;2024-02-14T00:07:06;100760.0;;;-13.0;86.0
28456;BME280;15682;56.742;38.866;2024-02-14T00:09:06;100760.0;;;-12.9;86.7
28456;BME280;15682;56.742;38.866;2024-02-14T00:11:06;100760.0;;;-12.9;86.0
28456;BME280;15682;56.742;38.866;2024-02-14T00:13:06;100760.0;;;-13.0;86.1
28456;BME280;15682;56.742;38.866;2024-02-14T00:15:06;100760.0;;;-13.1;86.5
28456;BME280;15682;56.742;38.866;2024-02-14T00:17:05;100760.0;;;-13.1;85.7
28456;BME280;15682;56.742;38.866;2024-02-14T00:19:04;100760.0;;;-12.8;86.4
28456;BME280;15682;56.742;38.866;2024-02-14T00:21:04;100760.0;;;-13.2;85.9
28456;BME280;15682;56.742;38.866;2024-02-14T00:23:04;100760.0;;;-13.2;86.4
28456;BME280;15682;56.742;38.866;2024-02-14T00:25:04;100760.0;;;-13.2;86.5
28456;BME280;15682;56.742;38.866;2024-02-14T00:27:03;100760.0;;;-13.2;86.5
28456;BME280;15682;56.742;38.866;2024-02-14T00:29:02;100760.0;;;-12.9;86.6
28456;BME280;15682;56.742;38.866;2024-02-14T00:31:02;100760.0;;;-13.0;86.0
28456;BME280;15682;56.742;38.866;2024-02-14T00:33:02;100770.0;;;-13.1;85.7
28456;BME280;15682;56.742;38.866;2024-02-14T00:35:01;100770.0;;;-13.1;85.7
28456;BME280;15682;56.742;38.866;2024-02-14T00:37:01;100770.0;;;-13.2;85.7
28456;BME280;15682;56.742;38.866;2024-02-14T00:39:01;100770.0;;;-13.3;85.7
28456;BME280;15682;56.742;38.866;2024-02-14T00:41:00;100770.0;;;-13.2;85.7
28456;BME280;15682;56.742;38.866;2024-02-14T00:43:00;100770.0;;;-13.0;86.7
28456;BME280;15682;56.742;38.866;2024-02-14T00:44:59;100770.0;;;-13.1;86.1
28456;BME280;15682;56.742;38.866;2024-02-14T00:46:59;100770.0;;;-13.1;86.4
28456;BME280;15682;56.742;38.866;2024-02-14T00:48:59;100770.0;;;-12.9;85.9
28456;BME280;15682;56.742;38.866;2024-02-14T00:50:58;100770.0;;;-12.9;85.9
28456;BME280;15682;56.742;38.866;2024-02-14T00:52:58;100770.0;;;-12.9;86.7
28456;BME280;15682;56.742;38.866;2024-02-14T00:54:58;100780.0;;;-12.9;85.5
28456;BME280;15682;56.742;38.866;2024-02-14T00:56:57;100780.0;;;-13.0;85.5
28456;BME280;15682;56.742;38.866;2024-02-14T00:58:57;100780.0;;;-13.2;85.5
28456;BME280;15682;56.742;38.866;2024-02-14T01:00:56;100780.0;;;-13.2;85.5
28456;BME280;15682;56.742;38.866;2024-02-14T01:02:56;100780.0;;;-13.2;85.9
28456;BME280;15682;56.742;38.866;2024-02-14T01:04:56;100780.0;;;-13.4;86.0
28456;BME280;15682;56.742;38.866;2024-02-14T01:06:55;100780.0;;;-13.4;86.0
28456;BME280;15682;56.742;38.866;2024-02-14T01:08:55;100780.0;;;-13.4;86.0
28456;BME280;15682;56.742;38.866;2024-02-14T01:10:55;100780.0;;;-13.4;86.6
28456;BME280;15682;56.742;38.866;2024-02-14T01:12:54;100780.0;;;-13.2;86.4
28456;BME280;15682;56.742;38.866;2024-02-14T01:14:54;100780.0;;;-13.4;86.0
28456;BME280;15682;56.742;38.866;2024-02-14T01:16:53;100780.0;;;-13.4;86.0
28456;BME280;15682;56.742;38.866;2024-02-14T01:18:53;100780.0;;;-13.6;86.0
28456;BME280;15682;56.742;38.866;2024-02-14T01:20:53;100780.0;;;-13.5;86.5
28456;BME280;15682;56.742;38.866;2024-02-14T01:22:52;100780.0;;;-13.5;86.2
28456;BME280;15682;56.742;38.866;2024-02-14T01:24:52;100780.0;;;-13.5;85.9
28456;BME280;15682;56.742;38.866;2024-02-14T01:26:52;100780.0;;;-13.4;85.9
28456;BME280;15682;56.742;38.866;2024-02-14T01:28:51;100780.0;;;-13.5;85.9
28456;BME280;15682;56.742;38.866;2024-02-14T01:30:51;100780.0;;;-13.7;85.9
28456;BME280;15682;56.742;38.866;2024-02-14T01:32:50;100780.0;;;-13.8;86.5
28456;BME280;15682;56.742;38.866;2024-02-14T01:34:50;100800.0;;;-13.8;86.5
28456;BME280;15682;56.742;38.866;2024-02-14T01:36:50;100800.0;;;-13.8;86.5
28456;BME280;15682;56.742;38.866;2024-02-14T01:38:49;100800.0;;;-13.6;86.5
28456;BME280;15682;56.742;38.866;2024-02-14T01:40:49;100800.0;;;-13.9;86.5
28456;BME280;15682;56.742;38.866;2024-02-14T01:42:49;100800.0;;;-13.7;86.5
28456;BME280;15682;56.742;38.866;2024-02-14T01:44:48;100800.0;;;-13.7;86.3
28456;BME280;15682;56.742;38.866;2024-02-14T01:46:48;100810.0;;;-13.6;85.9
28456;BME280;15682;56.742;38.866;2024-02-14T01:48:47;100810.0;;;-13.6;85.9
28456;BME280;15682;56.742;38.866;2024-02-14T01:50:47;100810.0;;;-13.6;86.2
28456;BME280;15682;56.742;38.866;2024-02-14T01:52:47;100810.0;;;-13.6;86.2
28456;BME280;15682;56.742;38.866;2024-02-14T01:54:46;100810.0;;;-13.6;85.4
28456;BME280;15682;56.742;38.866;2024-02-14T01:56:46;100820.0;;;-13.6;85.4
28456;BME280;15682;56.742;38.866;2024-02-14T01:58:46;100820.0;;;-13.8;85.4
28456;BME280;15682;56.742;38.866;2024-02-14T02:00:45;100830.0;;;-13.7;85.4
28456;BME280;15682;56.742;38.866;2024-02-14T02:02:45;100830.0;;;-13.7;85.4
28456;BME280;15682;56.742;38.866;2024-02-14T02:04:44;100830.0;;;-13.7;84.9
28456;BME280;15682;56.742;38.866;2024-02-14T02:06:44;100830.0;;;-13.9;84.9
28456;BME280;15682;56.742;38.866;2024-02-14T02:08:44;100830.0;;;-13.7;87.4
28456;BME280;15682;56.742;38.866;2024-02-14T02:10:43;100830.0;;;-13.9;85.9
28456;BME280;15682;56.742;38.866;2024-02-14T02:12:43;100830.0;;;-14.1;85.3
28456;BME280;15682;56.742;38.866;2024-02-14T02:14:42;100830.0;;;-14.2;85.4
28456;BME280;15682;56.742;38.866;2024-02-14T02:16:42;100830.0;;;-14.2;85.4
28456;BME280;15682;56.742;38.866;2024-02-14T02:18:41;100830.0;;;-14.2;85.4
28456;BME280;15682;56.742;38.866;2024-02-14T02:20:41;100830.0;;;-14.2;85.4
28456;BME280;15682;56.742;38.866;2024-02-14T02:22:45;100830.0;;;-14.0;86.0
28456;BME280;15682;56.742;38.866;2024-02-14T02:24:40;100830.0;;;-13.9;84.4
28456;BME280;15682;56.742;38.866;2024-02-14T02:26:40;100830.0;;;-13.9;86.1
28456;BME280;15682;56.742;38.866;2024-02-14T02:28:39;100830.0;;;-13.9;85.5
28456;BME280;15682;56.742;38.866;2024-02-14T02:30:39;100840.0;;;-13.6;84.9
28456;BME280;15682;56.742;38.866;2024-02-14T02:32:39;100850.0;;;-13.5;87.5
28456;BME280;15682;56.742;38.866;2024-02-14T02:34:38;100850.0;;;-13.5;85.6
28456;BME280;15682;56.742;38.866;2024-02-14T02:36:38;100850.0;;;-13.6;84.7
28456;BME280;15682;56.742;38.866;2024-02-14T02:38:38;100860.0;;;-13.8;84.7
28456;BME280;15682;56.742;38.866;2024-02-14T02:40:37;100860.0;;;-14.0;84.1
28456;BME280;15682;56.742;38.866;2024-02-14T02:42:37;100860.0;;;-13.6;87.9
28456;BME280;15682;56.742;38.866;2024-02-14T02:44:38;100860.0;;;-14.1;84.9
28456;BME280;15682;56.742;38.866;2024-02-14T02:46:36;100860.0;;;-14.3;84.9
28456;BME280;15682;56.742;38.866;2024-02-14T02:48:36;100860.0;;;-14.1;84.9
28456;BME280;15682;56.742;38.866;2024-02-14T02:50:35;100860.0;;;-14.1;84.9
28456;BME280;15682;56.742;38.866;2024-02-14T02:52:35;100860.0;;;-14.1;84.9
28456;BME280;15682;56.742;38.866;2024-02-14T02:54:34;100860.0;;;-14.1;84.6
28456;BME280;15682;56.742;38.866;2024-02-14T02:56:34;100860.0;;;-14.2;84.6
28456;BME280;15682;56.742;38.866;2024-02-14T02:58:34;100860.0;;;-14.0;84.6
28456;BME280;15682;56.742;38.866;2024-02-14T03:00:33;100860.0;;;-14.0;84.3
28456;BME280;15682;56.742;38.866;2024-02-14T03:02:34;100860.0;;;-14.0;84.6
28456;BME280;15682;56.742;38.866;2024-02-14T03:04:32;100870.0;;;-14.2;84.6
28456;BME280;15682;56.742;38.866;2024-02-14T03:06:32;100870.0;;;-14.2;84.6
28456;BME280;15682;56.742;38.866;2024-02-14T03:08:32;100870.0;;;-14.1;84.6
28456;BME280;15682;56.742;38.866;2024-02-14T03:10:31;100870.0;;;-14.1;85.2
28456;BME280;15682;56.742;38.866;2024-02-14T03:12:31;100870.0;;;-13.9;85.2
28456;BME280;15682;56.742;38.866;2024-02-14T03:14:31;100870.0;;;-13.9;84.4
28456;BME280;15682;56.742;38.866;2024-02-14T03:16:30;100870.0;;;-13.9;84.4
28456;BME280;15682;56.742;38.866;2024-02-14T03:18:30;100870.0;;;-13.9;84.4
28456;BME280;15682;56.742;38.866;2024-02-14T03:20:29;100870.0;;;-13.9;84.4
28456;BME280;15682;56.742;38.866;2024-02-14T03:22:29;100870.0;;;-13.8;84.4
28456;BME280;15682;56.742;38.866;2024-02-14T03:24:29;100880.0;;;-13.8;84.2
28456;BME280;15682;56.742;38.866;2024-02-14T03:26:28;100880.0;;;-13.8;84.1
28456;BME280;15682;56.742;38.866;2024-02-14T03:28:28;100880.0;;;-13.9;85.2
28456;BME280;15682;56.742;38.866;2024-02-14T03:30:27;100880.0;;;-13.9;84.0
28456;BME280;15682;56.742;38.866;2024-02-14T03:32:27;100880.0;;;-13.9;85.3
28456;BME280;15682;56.742;38.866;2024-02-14T03:34:27;100880.0;;;-13.9;84.6
28456;BME280;15682;56.742;38.866;2024-02-14T03:36:26;100880.0;;;-13.7;85.5
28456;BME280;15682;56.742;38.866;2024-02-14T03:38:26;100880.0;;;-13.9;85.5
28456;BME280;15682;56.742;38.866;2024-02-14T03:40:26;100880.0;;;-13.9;84.6
28456;BME280;15682;56.742;38.866;2024-02-14T03:42:25;100880.0;;;-13.8;86.0
28456;BME280;15682;56.742;38.866;2024-02-14T03:44:25;100880.0;;;-13.8;84.2
28456;BME280;15682;56.742;38.866;2024-02-14T03:46:24;100880.0;;;-13.8;85.9
28456;BME280;15682;56.742;38.866;2024-02-14T03:48:24;100880.0;;;-14.2;84.3
28456;BME280;15682;56.742;38.866;2024-02-14T03:50:24;100880.0;;;-14.5;84.3
28456;BME280;15682;56.742;38.866;2024-02-14T03:52:23;100880.0;;;-14.6;84.3
28456;BME280;15682;56.742;38.866;2024-02-14T03:54:23;100880.0;;;-14.7;85.1
28456;BME280;15682;56.742;38.866;2024-02-14T03:56:22;100880.0;;;-14.6;85.1
28456;BME280;15682;56.742;38.866;2024-02-14T03:58:22;100880.0;;;-14.6;85.1
28456;BME280;15682;56.742;38.866;2024-02-14T04:00:22;100880.0;;;-14.7;85.1
28456;BME280;15682;56.742;38.866;2024-02-14T04:02:21;100880.0;;;-14.5;85.1
28456;BME280;15682;56.742;38.866;2024-02-14T04:04:21;100890.0;;;-14.3;84.7
28456;BME280;15682;56.742;38.866;2024-02-14T04:06:21;100900.0;;;-14.3;85.7
28456;BME280;15682;56.742;38.866;2024-02-14T04:08:20;100900.0;;;-14.4;84.5
28456;BME280;15682;56.742;38.866;2024-02-14T04:10:20;100900.0;;;-14.5;84.5
28456;BME280;15682;56.742;38.866;2024-02-14T04:12:19;100910.0;;;-14.5;84.5
28456;BME280;15682;56.742;38.866;2024-02-14T04:14:19;100910.0;;;-14.7;84.2
28456;BME280;15682;56.742;38.866;2024-02-14T04:16:19;100920.0;;;-14.8;84.2
28456;BME280;15682;56.742;38.866;2024-02-14T04:18:18;100920.0;;;-14.5;85.6
28456;BME280;15682;56.742;38.866;2024-02-14T04:20:18;100920.0;;;-14.3;86.0
28456;BME280;15682;56.742;38.866;2024-02-14T04:22:17;100920.0;;;-14.6;84.6
28456;BME280;15682;56.742;38.866;2024-02-14T04:24:17;100920.0;;;-14.7;84.4
28456;BME280;15682;56.742;38.866;2024-02-14T04:26:20;100920.0;;;-14.7;84.4
28456;BME280;15682;56.742;38.866;2024-02-14T04:28:16;100920.0;;;-14.6;82.9
28456;BME280;15682;56.742;38.866;2024-02-14T04:30:16;100930.0;;;-14.3;84.9
28456;BME280;15682;56.742;38.866;2024-02-14T04:32:15;100930.0;;;-14.3;86.7
28456;BME280;15682;56.742;38.866;2024-02-14T04:34:15;100930.0;;;-14.7;84.4
28456;BME280;15682;56.742;38.866;2024-02-14T04:36:14;100940.0;;;-14.7;84.4
28456;BME280;15682;56.742;38.866;2024-02-14T04:38:14;100940.0;;;-14.8;84.4
28456;BME280;15682;56.742;38.866;2024-02-14T04:40:14;100940.0;;;-14.8;85.2
28456;BME280;15682;56.742;38.866;2024-02-14T04:42:13;100940.0;;;-14.7;85.2
28456;BME280;15682;56.742;38.866;2024-02-14T04:44:13;100940.0;;;-15.1;84.3
28456;BME280;15682;56.742;38.866;2024-02-14T04:46:12;100940.0;;;-15.0;84.3
28456;BME280;15682;56.742;38.866;2024-02-14T04:48:12;100940.0;;;-14.8;85.1
28456;BME280;15682;56.742;38.866;2024-02-14T04:50:12;100940.0;;;-15.0;84.5
28456;BME280;15682;56.742;38.866;2024-02-14T04:52:11;100940.0;;;-14.9;84.6
28456;BME280;15682;56.742;38.866;2024-02-14T04:54:11;100940.0;;;-14.9;84.5
28456;BME280;15682;56.742;38.866;2024-02-14T04:56:10;100940.0;;;-15.0;84.0
28456;BME280;15682;56.742;38.866;2024-02-14T04:58:10;100950.0;;;-15.0;84.0
28456;BME280;15682;56.742;38.866;2024-02-14T05:00:11;100950.0;;;-14.7;85.6
28456;BME280;15682;56.742;38.866;2024-02-14T05:02:09;100950.0;;;-14.7;85.9
28456;BME280;15682;56.742;38.866;2024-02-14T05:04:09;100950.0;;;-15.1;84.8
28456;BME280;15682;56.742;38.866;2024-02-14T05:06:08;100950.0;;;-14.7;84.8
28456;BME280;15682;56.742;38.866;2024-02-14T05:08:08;100950.0;;;-14.9;84.1
28456;BME280;15682;56.742;38.866;2024-02-14T05:10:08;100950.0;;;-15.1;84.1
28456;BME280;15682;56.742;38.866;2024-02-14T05:12:07;100950.0;;;-14.6;84.9
28456;BME280;15682;56.742;38.866;2024-02-14T05:14:07;100970.0;;;-14.6;83.8
28456;BME280;15682;56.742;38.866;2024-02-14T05:16:07;100980.0;;;-14.8;83.8
28456;BME280;15682;56.742;38.866;2024-02-14T05:18:06;100980.0;;;-14.7;83.8
28456;BME280;15682;56.742;38.866;2024-02-14T05:20:07;100980.0;;;-14.9;83.8
28456;BME280;15682;56.742;38.866;2024-02-14T05:22:05;100980.0;;;-14.9;83.2
28456;BME280;15682;56.742;38.866;2024-02-14T05:24:05;100980.0;;;-14.5;83.8
28456;BME280;15682;56.742;38.866;2024-02-14T05:26:05;100980.0;;;-14.5;83.3
28456;BME280;15682;56.742;38.866;2024-02-14T05:28:04;100990.0;;;-14.5;84.2
28456;BME280;15682;56.742;38.866;2024-02-14T05:30:05;100990.0;;;-14.6;84.2
28456;BME280;15682;56.742;38.866;2024-02-14T05:32:04;100990.0;;;-14.7;83.8
28456;BME280;15682;56.742;38.866;2024-02-14T05:34:03;100990.0;;;-14.5;83.3
28456;BME280;15682;56.742;38.866;2024-02-14T05:36:03;100990.0;;;-14.5;83.3
28456;BME280;15682;56.742;38.866;2024-02-14T05:38:02;100990.0;;;-14.7;83.2
28456;BME280;15682;56.742;38.866;2024-02-14T05:40:02;100990.0;;;-14.5;84.2
28456;BME280;15682;56.742;38.866;2024-02-14T05:42:01;101000.0;;;-14.5;84.1
28456;BME280;15682;56.742;38.866;2024-02-14T05:44:01;101000.0;;;-14.8;83.2
28456;BME280;15682;56.742;38.866;2024-02-14T05:46:00;101010.0;;;-14.8;83.2
28456;BME280;15682;56.742;38.866;2024-02-14T05:48:00;101010.0;;;-14.7;83.2
28456;BME280;15682;56.742;38.866;2024-02-14T05:49:59;101010.0;;;-14.6;84.0
28456;BME280;15682;56.742;38.866;2024-02-14T05:51:59;101010.0;;;-14.8;84.4
28456;BME280;15682;56.742;38.866;2024-02-14T05:53:59;101010.0;;;-14.8;83.8
28456;BME280;15682;56.742;38.866;2024-02-14T05:55:58;101010.0;;;-14.6;83.8
28456;BME280;15682;56.742;38.866;2024-02-14T05:57:58;101020.0;;;-14.8;83.2
28456;BME280;15682;56.742;38.866;2024-02-14T05:59:57;101020.0;;;-14.9;83.2
28456;BME280;15682;56.742;38.866;2024-02-14T06:01:57;101020.0;;;-14.6;83.8
28456;BME280;15682;56.742;38.866;2024-02-14T06:03:57;101020.0;;;-14.9;83.6
28456;BME280;15682;56.742;38.866;2024-02-14T06:05:56;101020.0;;;-15.0;83.6
28456;BME280;15682;56.742;38.866;2024-02-14T06:07:56;101020.0;;;-14.8;83.6
28456;BME280;15682;56.742;38.866;2024-02-14T06:09:55;101020.0;;;-14.7;83.6
28456;BME280;15682;56.742;38.866;2024-02-14T06:11:55;101020.0;;;-14.7;83.6
28456;BME280;15682;56.742;38.866;2024-02-14T06:13:54;101020.0;;;-14.7;83.7
28456;BME280;15682;56.742;38.866;2024-02-14T06:15:54;101020.0;;;-14.5;83.7
28456;BME280;15682;56.742;38.866;2024-02-14T06:17:54;101020.0;;;-14.7;83.7
28456;BME280;15682;56.742;38.866;2024-02-14T06:19:54;101020.0;;;-14.3;83.9
28456;BME280;15682;56.742;38.866;2024-02-14T06:21:53;101020.0;;;-14.7;83.2
28456;BME280;15682;56.742;38.866;2024-02-14T06:23:53;101020.0;;;-14.8;83.5
28456;BME280;15682;56.742;38.866;2024-02-14T06:25:52;101020.0;;;-14.6;83.5
28456;BME280;15682;56.742;38.866;2024-02-14T06:27:52;101030.0;;;-14.4;83.5
28456;BME280;15682;56.742;38.866;2024-02-14T06:29:51;101040.0;;;-14.6;83.5
28456;BME280;15682;56.742;38.866;2024-02-14T06:31:51;101040.0;;;-14.7;83.5
28456;BME280;15682;56.742;38.866;2024-02-14T06:33:50;101040.0;;;-14.5;83.6
28456;BME280;15682;56.742;38.866;2024-02-14T06:35:50;101040.0;;;-14.6;83.6
28456;BME280;15682;56.742;38.866;2024-02-14T06:37:50;101040.0;;;-14.6;83.6
28456;BME280;15682;56.742;38.866;2024-02-14T06:39:49;101040.0;;;-14.6;83.6
28456;BME280;15682;56.742;38.866;2024-02-14T06:41:49;101040.0;;;-14.5;83.6
28456;BME280;15682;56.742;38.866;2024-02-14T06:43:48;101040.0;;;-14.6;83.2
28456;BME280;15682;56.742;38.866;2024-02-14T06:45:48;101040.0;;;-14.7;83.2
28456;BME280;15682;56.742;38.866;2024-02-14T06:47:48;101040.0;;;-14.4;83.2
28456;BME280;15682;56.742;38.866;2024-02-14T06:49:47;101040.0;;;-14.6;83.2
28456;BME280;15682;56.742;38.866;2024-02-14T06:51:47;101040.0;;;-14.4;83.2
28456;BME280;15682;56.742;38.866;2024-02-14T06:53:46;101040.0;;;-14.6;82.8
28456;BME280;15682;56.742;38.866;2024-02-14T06:55:46;101040.0;;;-14.8;82.8
28456;BME280;15682;56.742;38.866;2024-02-14T06:57:46;101040.0;;;-14.8;82.8
28456;BME280;15682;56.742;38.866;2024-02-14T06:59:45;101040.0;;;-14.5;82.8
28456;BME280;15682;56.742;38.866;2024-02-14T07:01:45;101040.0;;;-14.7;82.8
28456;BME280;15682;56.742;38.866;2024-02-14T07:03:44;101050.0;;;-14.7;82.8
28456;BME280;15682;56.742;38.866;2024-02-14T07:05:44;101050.0;;;-14.9;82.8
28456;BME280;15682;56.742;38.866;2024-02-14T07:07:44;101050.0;;;-14.5;82.8
28456;BME280;15682;56.742;38.866;2024-02-14T07:09:43;101050.0;;;-14.9;82.7
28456;BME280;15682;56.742;38.866;2024-02-14T07:11:43;101050.0;;;-14.7;83.3
28456;BME280;15682;56.742;38.866;2024-02-14T07:13:43;101050.0;;;-14.6;82.7
28456;BME280;15682;56.742;38.866;2024-02-14T07:15:42;101050.0;;;-14.8;82.7
28456;BME280;15682;56.742;38.866;2024-02-14T07:17:42;101050.0;;;-14.4;82.7
28456;BME280;15682;56.742;38.866;2024-02-14T07:19:42;101050.0;;;-14.2;82.0
28456;BME280;15682;56.742;38.866;2024-02-14T07:21:41;101050.0;;;-14.2;82.0
28456;BME280;15682;56.742;38.866;2024-02-14T07:23:41;101050.0;;;-14.3;82.0
28456;BME280;15682;56.742;38.866;2024-02-14T07:25:40;101050.0;;;-14.6;82.0
28456;BME280;15682;56.742;38.866;2024-02-14T07:27:40;101050.0;;;-14.4;82.0
28456;BME280;15682;56.742;38.866;2024-02-14T07:29:39;101050.0;;;-14.4;82.6
28456;BME280;15682;56.742;38.866;2024-02-14T07:31:39;101050.0;;;-14.3;82.6
28456;BME280;15682;56.742;38.866;2024-02-14T07:33:38;101070.0;;;-14.3;82.0
28456;BME280;15682;56.742;38.866;2024-02-14T07:35:38;101070.0;;;-14.2;82.0
28456;BME280;15682;56.742;38.866;2024-02-14T07:37:38;101070.0;;;-14.2;82.0
28456;BME280;15682;56.742;38.866;2024-02-14T07:39:37;101070.0;;;-14.4;82.0
28456;BME280;15682;56.742;38.866;2024-02-14T07:41:37;101070.0;;;-14.2;82.0
28456;BME280;15682;56.742;38.866;2024-02-14T07:43:36;101070.0;;;-14.2;81.8
28456;BME280;15682;56.742;38.866;2024-02-14T07:45:36;101070.0;;;-14.2;81.8
28456;BME280;15682;56.742;38.866;2024-02-14T07:47:36;101070.0;;;-14.2;81.8
28456;BME280;15682;56.742;38.866;2024-02-14T07:49:35;101070.0;;;-14.0;81.8
28456;BME280;15682;56.742;38.866;2024-02-14T07:51:35;101070.0;;;-14.1;81.8
28456;BME280;15682;56.742;38.866;2024-02-14T07:53:34;101070.0;;;-14.1;81.9
28456;BME280;15682;56.742;38.866;2024-02-14T07:55:34;101070.0;;;-14.0;81.9
28456;BME280;15682;56.742;38.866;2024-02-14T07:57:34;101070.0;;;-14.3;81.9
28456;BME280;15682;56.742;38.866;2024-02-14T07:59:33;101070.0;;;-13.9;81.9
28456;BME280;15682;56.742;38.866;2024-02-14T08:01:33;101070.0;;;-14.1;81.9
28456;BME280;15682;56.742;38.866;2024-02-14T08:03:32;101070.0;;;-14.1;82.0
28456;BME280;15682;56.742;38.866;2024-02-14T08:05:32;101070.0;;;-13.9;82.0
28456;BME280;15682;56.742;38.866;2024-02-14T08:07:32;101070.0;;;-13.7;81.4
28456;BME280;15682;56.742;38.866;2024-02-14T08:09:31;101070.0;;;-13.7;81.4
28456;BME280;15682;56.742;38.866;2024-02-14T08:11:31;101070.0;;;-13.7;81.4
28456;BME280;15682;56.742;38.866;2024-02-14T08:13:31;101070.0;;;-13.5;81.5
28456;BME280;15682;56.742;38.866;2024-02-14T08:15:30;101070.0;;;-13.7;81.5
28456;BME280;15682;56.742;38.866;2024-02-14T08:17:30;101070.0;;;-13.5;81.5
28456;BME280;15682;56.742;38.866;2024-02-14T08:19:29;101070.0;;;-13.5;81.5
28456;BME280;15682;56.742;38.866;2024-02-14T08:21:29;101070.0;;;-13.3;82.2
28456;BME280;15682;56.742;38.866;2024-02-14T08:23:29;101070.0;;;-13.6;81.4
28456;BME280;15682;56.742;38.866;2024-02-14T08:25:28;101070.0;;;-13.7;81.4
28456;BME280;15682;56.742;38.866;2024-02-14T08:27:28;101070.0;;;-13.6;81.4
28456;BME280;15682;56.742;38.866;2024-02-14T08:29:27;101070.0;;;-13.5;81.4
28456;BME280;15682;56.742;38.866;2024-02-14T08:31:27;101070.0;;;-13.5;81.4
28456;BME280;15682;56.742;38.866;2024-02-14T08:33:27;101080.0;;;-13.3;81.2
28456;BME280;15682;56.742;38.866;2024-02-14T08:35:26;101080.0;;;-13.6;81.2
28456;BME280;15682;56.742;38.866;2024-02-14T08:37:26;101080.0;;;-13.1;81.2
28456;BME280;15682;56.742;38.866;2024-02-14T08:39:26;101080.0;;;-13.1;81.2
28456;BME280;15682;56.742;38.866;2024-02-14T08:41:25;101090.0;;;-13.3;80.6
28456;BME280;15682;56.742;38.866;2024-02-14T08:43:25;101090.0;;;-13.3;80.8
28456;BME280;15682;56.742;38.866;2024-02-14T08:45:24;101090.0;;;-13.4;80.8
28456;BME280;15682;56.742;38.866;2024-02-14T08:47:24;101090.0;;;-13.1;81.1
28456;BME280;15682;56.742;38.866;2024-02-14T08:49:24;101090.0;;;-13.2;80.6
28456;BME280;15682;56.742;38.866;2024-02-14T08:51:23;101090.0;;;-13.2;80.6
28456;BME280;15682;56.742;38.866;2024-02-14T08:53:23;101100.0;;;-13.2;80.7
28456;BME280;15682;56.742;38.866;2024-02-14T08:55:23;101100.0;;;-13.3;80.7
28456;BME280;15682;56.742;38.866;2024-02-14T08:57:22;101100.0;;;-13.2;80.7
28456;BME280;15682;56.742;38.866;2024-02-14T08:59:22;101100.0;;;-13.2;80.7
28456;BME280;15682;56.742;38.866;2024-02-14T09:01:22;101100.0;;;-12.5;80.7
28456;BME280;15682;56.742;38.866;2024-02-14T09:03:21;101100.0;;;-13.0;80.1
28456;BME280;15682;56.742;38.866;2024-02-14T09:05:21;101100.0;;;-13.0;80.1
28456;BME280;15682;56.742;38.866;2024-02-14T09:07:21;101100.0;;;-12.5;80.1
28456;BME280;15682;56.742;38.866;2024-02-14T09:09:20;101100.0;;;-12.5;80.0
28456;BME280;15682;56.742;38.866;2024-02-14T09:11:20;101100.0;;;-12.5;80.0
28456;BME280;15682;56.742;38.866;2024-02-14T09:13:19;101100.0;;;-12.8;79.6
28456;BME280;15682;56.742;38.866;2024-02-14T09:15:19;101100.0;;;-12.8;79.6
28456;BME280;15682;56.742;38.866;2024-02-14T09:17:19;101100.0;;;-12.6;79.6
28456;BME280;15682;56.742;38.866;2024-02-14T09:19:18;101100.0;;;-12.7;79.6
28456;BME280;15682;56.742;38.866;2024-02-14T09:21:18;101100.0;;;-12.7;79.6
28456;BME280;15682;56.742;38.866;2024-02-14T09:23:18;101100.0;;;-12.7;80.3
28456;BME280;15682;56.742;38.866;2024-02-14T09:25:17;101100.0;;;-12.8;80.3
28456;BME280;15682;56.742;38.866;2024-02-14T09:27:17;101100.0;;;-12.5;80.3
28456;BME280;15682;56.742;38.866;2024-02-14T09:29:16;101100.0;;;-12.6;80.3
28456;BME280;15682;56.742;38.866;2024-02-14T09:31:18;101100.0;;;-12.5;80.3
28456;BME280;15682;56.742;38.866;2024-02-14T09:33:16;101100.0;;;-12.5;80.0
28456;BME280;15682;56.742;38.866;2024-02-14T09:35:16;101100.0;;;-12.6;80.0
28456;BME280;15682;56.742;38.866;2024-02-14T09:37:16;101100.0;;;-12.4;80.0
28456;BME280;15682;56.742;38.866;2024-02-14T09:39:15;101100.0;;;-12.3;80.0
28456;BME280;15682;56.742;38.866;2024-02-14T09:41:17;101120.0;;;-12.2;80.0
28456;BME280;15682;56.742;38.866;2024-02-14T09:43:24;101120.0;;;-12.4;79.7
28456;BME280;15682;56.742;38.866;2024-02-14T09:45:14;101120.0;;;-12.1;79.5
28456;BME280;15682;56.742;38.866;2024-02-14T09:47:13;101120.0;;;-12.1;79.5
28456;BME280;15682;56.742;38.866;2024-02-14T09:49:14;101120.0;;;-12.1;79.5
28456;BME280;15682;56.742;38.866;2024-02-14T09:51:13;101120.0;;;-11.9;79.5
28456;BME280;15682;56.742;38.866;2024-02-14T09:53:13;101120.0;;;-12.0;79.2
28456;BME280;15682;56.742;38.866;2024-02-14T09:55:12;101120.0;;;-12.3;79.2
28456;BME280;15682;56.742;38.866;2024-02-14T09:57:13;101120.0;;;-12.0;79.2
28456;BME280;15682;56.742;38.866;2024-02-14T09:59:12;101120.0;;;-11.9;79.2
28456;BME280;15682;56.742;38.866;2024-02-14T10:01:11;101120.0;;;-11.9;79.0
28456;BME280;15682;56.742;38.866;2024-02-14T10:03:11;101120.0;;;-11.9;78.9
28456;BME280;15682;56.742;38.866;2024-02-14T10:05:10;101120.0;;;-11.9;78.9
28456;BME280;15682;56.742;38.866;2024-02-14T10:07:10;101120.0;;;-11.7;78.9
28456;BME280;15682;56.742;38.866;2024-02-14T10:09:10;101120.0;;;-11.7;78.9
28456;BME280;15682;56.742;38.866;2024-02-14T10:11:09;101120.0;;;-11.7;78.9
28456;BME280;15682;56.742;38.866;2024-02-14T10:13:09;101120.0;;;-11.7;78.8
28456;BME280;15682;56.742;38.866;2024-02-14T10:15:09;101120.0;;;-11.7;78.8
28456;BME280;15682;56.742;38.866;2024-02-14T10:17:08;101120.0;;;-11.6;78.5
28456;BME280;15682;56.742;38.866;2024-02-14T10:19:15;101120.0;;;-11.6;78.5
28456;BME280;15682;56.742;38.866;2024-02-14T10:21:13;101120.0;;;-11.5;78.5
28456;BME280;15682;56.742;38.866;2024-02-14T10:23:08;101120.0;;;-11.4;78.6
28456;BME280;15682;56.742;38.866;2024-02-14T10:25:07;101120.0;;;-11.4;78.6
28456;BME280;15682;56.742;38.866;2024-02-14T10:27:07;101110.0;;;-11.5;78.6
28456;BME280;15682;56.742;38.866;2024-02-14T10:29:06;101110.0;;;-11.5;78.6
28456;BME280;15682;56.742;38.866;2024-02-14T10:31:06;101110.0;;;-11.6;78.6
28456;BME280;15682;56.742;38.866;2024-02-14T10:33:05;101110.0;;;-11.4;78.8